Time,TemperatureF,DewpointF,PressureIn,WindDirection,WindDirectionDegrees,WindSpeedMPH,WindSpeedGustMPH,Humidity,HourlyPrecipIn,Conditions,Clouds,dailyrainin,SoftwareType,DateUTC
2013-01-12 00:00:00,28.0,24.9,30.18,SSE,157,0.0,0.0,88,0.00,,,0.00,WUHU21623XXSP,2013-01-12 08:00:00,
2013-01-12 00:06:00,28.0,24.9,30.18,SSE,157,0.0,0.0,88,0.00,,,0.00,WUHU21623XXSP,2013-01-12 08:06:00,
2013-01-12 00:11:00,27.7,24.6,30.18,SSE,157,0.0,0.0,88,0.00,,,0.00,WUHU21623XXSP,2013-01-12 08:11:00,
2013-01-12 00:16:00,27.7,24.6,30.18,SSE,157,0.0,0.0,88,0.00,,,0.00,WUHU21623XXSP,2013-01-12 08:16:00,
2013-01-12 00:21:00,28.0,24.9,30.18,SSE,157,0.0,0.0,88,0.00,,,0.00,WUHU21623XXSP,2013-01-12 08:21:00,
2013-01-12 00:27:00,28.0,24.9,30.18,SSE,157,0.0,0.0,88,0.00,,,0.00,WUHU21623XXSP,2013-01-12 08:27:00,
2013-01-12 00:32:00,28.0,24.9,30.18,SSE,157,0.0,0.0,88,0.00,,,0.00,WUHU21623XXSP,2013-01-12 08:32:00,
2013-01-12 00:37:00,28.0,24.9,30.18,SSE,157,0.0,0.0,88,0.00,,,0.00,WUHU21623XXSP,2013-01-12 08:37:00,
2013-01-12 00:42:00,28.0,24.9,30.19,SSE,157,0.0,0.0,88,0.00,,,0.00,WUHU21623XXSP,2013-01-12 08:42:00,
2013-01-12 00:48:00,28.2,25.1,30.18,SSE,157,0.0,0.0,88,0.00,,,0.00,WUHU21623XXSP,2013-01-12 08:48:00,
2013-01-12 00:53:00,28.0,24.9,30.19,SSE,157,0.0,0.0,88,0.00,,,0.00,WUHU21623XXSP,2013-01-12 08:53:00,
2013-01-12 00:58:00,28.0,24.7,30.19,SSE,157,0.0,0.0,87,0.00,,,0.00,WUHU21623XXSP,2013-01-12 08:58:00,
2013-01-12 01:04:00,27.7,24.3,30.19,SSE,157,0.0,0.0,87,0.00,,,0.00,WUHU21623XXSP,2013-01-12 09:04:00,
2013-01-12 01:09:00,27.7,24.3,30.19,SSE,157,0.0,0.0,87,0.00,,,0.00,WUHU21623XXSP,2013-01-12 09:09:00,
2013-01-12 01:14:00,27.7,24.3,30.18,SSE,157,0.0,0.0,87,0.00,,,0.00,WUHU21623XXSP,2013-01-12 09:14:00,
2013-01-12 01:19:00,27.7,24.3,30.19,SSE,157,0.0,0.0,87,0.00,,,0.00,WUHU21623XXSP,2013-01-12 09:19:00,
2013-01-12 01:25:00,27.3,23.9,30.19,SSE,157,0.0,0.0,87,0.00,,,0.00,WUHU21623XXSP,2013-01-12 09:25:00,
2013-01-12 01:30:00,27.1,23.8,30.18,SSE,157,0.0,0.0,87,0.00,,,0.00,WUHU21623XXSP,2013-01-12 09:30:00,
2013-01-12 01:35:00,27.1,24.0,30.19,SSE,157,0.0,0.0,88,0.00,,,0.00,WUHU21623XXSP,2013-01-12 09:35:00,
2013-01-12 01:40:00,27.1,24.0,30.19,SSE,157,0.0,0.0,88,0.00,,,0.00,WUHU21623XXSP,2013-01-12 09:40:00,
2013-01-12 01:46:00,27.1,24.0,30.19,SSE,157,0.0,0.0,88,0.00,,,0.00,WUHU21623XXSP,2013-01-12 09:46:00,
2013-01-12 01:51:00,27.1,24.0,30.19,SSE,157,0.0,0.0,88,0.00,,,0.00,WUHU21623XXSP,2013-01-12 09:51:00,
2013-01-12 02:01:00,27.0,23.9,30.19,SSE,157,0.0,0.0,88,0.00,,,0.00,WUHU21623XXSP,2013-01-12 10:01:00,
2013-01-12 02:06:00,27.0,23.9,30.19,SSE,157,0.0,0.0,88,0.00,,,0.00,WUHU21623XXSP,2013-01-12 10:06:00,
2013-01-12 02:11:00,26.8,23.7,30.19,SSE,157,0.0,0.0,88,0.00,,,0.00,WUHU21623XXSP,2013-01-12 10:11:00,
2013-01-12 02:16:00,26.8,23.7,30.19,SSE,157,0.0,0.0,88,0.00,,,0.00,WUHU21623XXSP,2013-01-12 10:16:00,
2013-01-12 02:22:00,26.8,23.7,30.19,SSE,157,0.0,0.0,88,0.00,,,0.00,WUHU21623XXSP,2013-01-12 10:22:00,
2013-01-12 02:27:00,26.8,23.7,30.19,SSE,157,0.0,0.0,88,0.00,,,0.00,WUHU21623XXSP,2013-01-12 10:27:00,
2013-01-12 02:32:00,26.8,23.7,30.19,SSE,157,0.0,0.0,88,0.00,,,0.00,WUHU21623XXSP,2013-01-12 10:32:00,
2013-01-12 02:37:00,26.8,23.7,30.19,SSE,157,0.0,0.0,88,0.00,,,0.00,WUHU21623XXSP,2013-01-12 10:37:00,
2013-01-12 02:43:00,26.6,23.5,30.19,SSE,157,0.0,0.0,88,0.00,,,0.00,WUHU21623XXSP,2013-01-12 10:43:00,
2013-01-12 02:48:00,26.4,23.3,30.19,SSE,157,0.0,0.0,88,0.00,,,0.00,WUHU21623XXSP,2013-01-12 10:48:00,
2013-01-12 02:53:00,26.4,23.3,30.19,SSE,157,0.0,0.0,88,0.00,,,0.00,WUHU21623XXSP,2013-01-12 10:53:00,
2013-01-12 03:01:00,26.2,23.1,30.19,SSE,157,0.0,0.0,88,0.00,,,0.00,WUHU21623XXSP,2013-01-12 11:01:00,
2013-01-12 03:06:00,26.2,23.1,30.19,SSE,157,0.0,0.0,88,0.00,,,0.00,WUHU21623XXSP,2013-01-12 11:06:00,
2013-01-12 03:11:00,26.4,23.6,30.19,SSE,157,0.0,0.0,89,0.00,,,0.00,WUHU21623XXSP,2013-01-12 11:11:00,
2013-01-12 03:16:00,26.4,23.3,30.19,SSE,157,0.0,0.0,88,0.00,,,0.00,WUHU21623XXSP,2013-01-12 11:16:00,
2013-01-12 03:22:00,26.2,23.1,30.19,SSE,157,0.0,0.0,88,0.00,,,0.00,WUHU21623XXSP,2013-01-12 11:22:00,
2013-01-12 03:27:00,26.2,23.1,30.19,SSE,157,0.0,0.0,88,0.00,,,0.00,WUHU21623XXSP,2013-01-12 11:27:00,
2013-01-12 03:32:00,26.4,23.3,30.19,SSE,157,0.0,0.0,88,0.00,,,0.00,WUHU21623XXSP,2013-01-12 11:32:00,
2013-01-12 03:37:00,26.2,23.1,30.19,SSE,157,0.0,0.0,88,0.00,,,0.00,WUHU21623XXSP,2013-01-12 11:37:00,
2013-01-12 03:43:00,26.2,23.1,30.19,SSE,157,0.0,0.0,88,0.00,,,0.00,WUHU21623XXSP,2013-01-12 11:43:00,
2013-01-12 03:48:00,26.1,23.0,30.19,SSE,157,0.0,0.0,88,0.00,,,0.00,WUHU21623XXSP,2013-01-12 11:48:00,
2013-01-12 03:53:00,25.9,22.8,30.20,SSE,157,0.0,0.0,88,0.00,,,0.00,WUHU21623XXSP,2013-01-12 11:53:00,
2013-01-12 03:59:00,25.7,22.6,30.19,SSE,157,0.0,0.0,88,0.00,,,0.00,WUHU21623XXSP,2013-01-12 11:59:00,
2013-01-12 04:04:00,25.5,22.4,30.19,SSE,157,0.0,0.0,88,0.00,,,0.00,WUHU21623XXSP,2013-01-12 12:04:00,
2013-01-12 04:09:00,25.5,22.4,30.19,SSE,157,0.0,0.0,88,0.00,,,0.00,WUHU21623XXSP,2013-01-12 12:09:00,
2013-01-12 04:14:00,25.3,22.3,30.19,SSE,157,0.0,0.0,88,0.00,,,0.00,WUHU21623XXSP,2013-01-12 12:14:00,
2013-01-12 04:20:00,25.2,22.1,30.20,SSE,157,0.0,0.0,88,0.00,,,0.00,WUHU21623XXSP,2013-01-12 12:20:00,
2013-01-12 04:25:00,25.0,21.9,30.20,SSE,157,0.0,0.0,88,0.00,,,0.00,WUHU21623XXSP,2013-01-12 12:25:00,
2013-01-12 04:30:00,25.0,21.9,30.20,SSE,157,0.0,0.0,88,0.00,,,0.00,WUHU21623XXSP,2013-01-12 12:30:00,
2013-01-12 04:35:00,25.0,22.2,30.19,SSE,157,0.0,0.0,89,0.00,,,0.00,WUHU21623XXSP,2013-01-12 12:35:00,
2013-01-12 04:41:00,25.0,22.2,30.20,SSE,157,0.0,0.0,89,0.00,,,0.00,WUHU21623XXSP,2013-01-12 12:41:00,
2013-01-12 04:46:00,25.0,22.2,30.20,SSE,157,0.0,0.0,89,0.00,,,0.00,WUHU21623XXSP,2013-01-12 12:46:00,
2013-01-12 04:51:00,25.0,22.2,30.20,SSE,157,0.0,0.0,89,0.00,,,0.00,WUHU21623XXSP,2013-01-12 12:51:00,
2013-01-12 04:56:00,25.0,22.2,30.19,SSE,157,0.0,0.0,89,0.00,,,0.00,WUHU21623XXSP,2013-01-12 12:56:00,
2013-01-12 05:02:00,25.0,22.2,30.20,SSE,157,0.0,0.0,89,0.00,,,0.00,WUHU21623XXSP,2013-01-12 13:02:00,
2013-01-12 05:07:00,25.2,22.4,30.20,SSE,157,0.0,0.0,89,0.00,,,0.00,WUHU21623XXSP,2013-01-12 13:07:00,
2013-01-12 05:12:00,25.5,22.7,30.20,SSE,157,0.0,0.0,89,0.00,,,0.00,WUHU21623XXSP,2013-01-12 13:12:00,
2013-01-12 05:18:00,25.9,23.1,30.20,SSE,157,0.0,0.0,89,0.00,,,0.00,WUHU21623XXSP,2013-01-12 13:18:00,
2013-01-12 05:23:00,25.9,23.1,30.20,SSE,157,0.0,0.0,89,0.00,,,0.00,WUHU21623XXSP,2013-01-12 13:23:00,
2013-01-12 05:28:00,26.2,23.4,30.20,SSE,157,0.0,0.0,89,0.00,,,0.00,WUHU21623XXSP,2013-01-12 13:28:00,
2013-01-12 05:33:00,26.2,23.4,30.20,SSE,157,0.0,0.0,89,0.00,,,0.00,WUHU21623XXSP,2013-01-12 13:33:00,
2013-01-12 05:39:00,26.4,23.3,30.20,SSE,157,0.0,0.0,88,0.00,,,0.00,WUHU21623XXSP,2013-01-12 13:39:00,
2013-01-12 05:44:00,26.4,23.3,30.20,SSE,157,0.0,0.0,88,0.00,,,0.00,WUHU21623XXSP,2013-01-12 13:44:00,
2013-01-12 05:49:00,26.4,23.3,30.20,SSE,157,0.0,0.0,88,0.00,,,0.00,WUHU21623XXSP,2013-01-12 13:49:00,
2013-01-12 05:54:00,26.6,23.5,30.20,SSE,157,0.0,0.0,88,0.00,,,0.00,WUHU21623XXSP,2013-01-12 13:54:00,
2013-01-12 06:00:00,26.6,23.5,30.20,SSE,157,0.0,0.0,88,0.00,,,0.00,WUHU21623XXSP,2013-01-12 14:00:00,
2013-01-12 06:05:00,26.4,23.3,30.21,SSE,157,0.0,0.0,88,0.00,,,0.00,WUHU21623XXSP,2013-01-12 14:05:00,
2013-01-12 06:10:00,26.4,23.3,30.20,SSE,157,0.0,0.0,88,0.00,,,0.00,WUHU21623XXSP,2013-01-12 14:10:00,
2013-01-12 06:15:00,26.4,23.3,30.20,SSE,157,0.0,0.0,88,0.00,,,0.00,WUHU21623XXSP,2013-01-12 14:15:00,
2013-01-12 06:21:00,26.6,23.5,30.21,SSE,157,0.0,0.0,88,0.00,,,0.00,WUHU21623XXSP,2013-01-12 14:21:00,
2013-01-12 06:26:00,26.6,23.5,30.20,SSE,157,0.0,0.0,88,0.00,,,0.00,WUHU21623XXSP,2013-01-12 14:26:00,
2013-01-12 06:31:00,26.8,23.7,30.20,SSE,157,0.0,0.0,88,0.00,,,0.00,WUHU21623XXSP,2013-01-12 14:31:00,
2013-01-12 06:36:00,26.8,23.7,30.20,SSE,157,0.0,0.0,88,0.00,,,0.00,WUHU21623XXSP,2013-01-12 14:36:00,
2013-01-12 06:42:00,27.0,23.9,30.20,SSE,157,0.0,0.0,88,0.00,,,0.00,WUHU21623XXSP,2013-01-12 14:42:00,
2013-01-12 06:47:00,27.0,23.9,30.20,SSE,157,0.0,0.0,88,0.00,,,0.00,WUHU21623XXSP,2013-01-12 14:47:00,
2013-01-12 06:52:00,27.0,23.9,30.21,SSE,157,0.0,0.0,88,0.00,,,0.00,WUHU21623XXSP,2013-01-12 14:52:00,
2013-01-12 06:57:00,26.8,23.4,30.21,SSE,157,0.0,0.0,87,0.00,,,0.00,WUHU21623XXSP,2013-01-12 14:57:00,
2013-01-12 07:03:00,26.4,23.3,30.21,SSE,157,0.0,0.0,88,0.00,,,0.00,WUHU21623XXSP,2013-01-12 15:03:00,
2013-01-12 07:08:00,26.4,23.3,30.21,SSE,157,0.0,0.0,88,0.00,,,0.00,WUHU21623XXSP,2013-01-12 15:08:00,
2013-01-12 07:13:00,26.4,23.3,30.21,SSE,157,0.0,0.0,88,0.00,,,0.00,WUHU21623XXSP,2013-01-12 15:13:00,
2013-01-12 07:19:00,26.4,23.3,30.22,SSE,157,0.0,0.0,88,0.00,,,0.00,WUHU21623XXSP,2013-01-12 15:19:00,
2013-01-12 07:24:00,26.4,23.3,30.22,SSE,157,0.0,0.0,88,0.00,,,0.00,WUHU21623XXSP,2013-01-12 15:24:00,
2013-01-12 07:29:00,26.4,23.3,30.22,SSE,157,0.0,0.0,88,0.00,,,0.00,WUHU21623XXSP,2013-01-12 15:29:00,
2013-01-12 07:34:00,26.2,23.1,30.23,SSE,157,0.0,0.0,88,0.00,,,0.00,WUHU21623XXSP,2013-01-12 15:34:00,
2013-01-12 07:40:00,26.4,23.3,30.22,SSE,157,0.0,0.0,88,0.00,,,0.00,WUHU21623XXSP,2013-01-12 15:40:00,
2013-01-12 07:45:00,26.6,23.5,30.24,SSE,157,0.0,0.0,88,0.00,,,0.00,WUHU21623XXSP,2013-01-12 15:45:00,
2013-01-12 07:50:00,26.4,23.3,30.23,SSE,157,0.0,0.0,88,0.00,,,0.00,WUHU21623XXSP,2013-01-12 15:50:00,
2013-01-12 07:55:00,26.4,23.3,30.23,SSE,157,0.0,0.0,88,0.00,,,0.00,WUHU21623XXSP,2013-01-12 15:55:00,
2013-01-12 08:01:00,26.6,23.5,30.24,SSE,157,0.0,0.0,88,0.00,,,0.00,WUHU21623XXSP,2013-01-12 16:01:00,
2013-01-12 08:06:00,26.8,23.7,30.24,SSE,157,0.0,0.0,88,0.00,,,0.00,WUHU21623XXSP,2013-01-12 16:06:00,
2013-01-12 08:11:00,26.4,23.0,30.24,SSE,157,0.0,0.0,87,0.00,,,0.00,WUHU21623XXSP,2013-01-12 16:11:00,
2013-01-12 08:16:00,26.4,23.0,30.24,SSE,157,0.0,0.0,87,0.00,,,0.00,WUHU21623XXSP,2013-01-12 16:16:00,
2013-01-12 08:22:00,26.4,23.3,30.24,SSE,157,0.0,0.0,88,0.00,,,0.00,WUHU21623XXSP,2013-01-12 16:22:00,
2013-01-12 08:27:00,26.4,23.3,30.24,SSE,157,0.0,0.0,88,0.00,,,0.00,WUHU21623XXSP,2013-01-12 16:27:00,
2013-01-12 08:32:00,26.4,23.3,30.25,SSE,157,0.0,0.0,88,0.00,,,0.00,WUHU21623XXSP,2013-01-12 16:32:00,
2013-01-12 08:37:00,26.6,23.5,30.25,SSE,157,0.0,0.0,88,0.00,,,0.00,WUHU21623XXSP,2013-01-12 16:37:00,
2013-01-12 08:43:00,26.8,23.7,30.25,SSE,157,0.0,0.0,88,0.00,,,0.00,WUHU21623XXSP,2013-01-12 16:43:00,
2013-01-12 08:48:00,27.0,23.9,30.25,SSE,157,0.0,0.0,88,0.00,,,0.00,WUHU21623XXSP,2013-01-12 16:48:00,
2013-01-12 08:53:00,27.3,24.2,30.25,SSE,157,0.0,0.0,88,0.00,,,0.00,WUHU21623XXSP,2013-01-12 16:53:00,
2013-01-12 08:58:00,27.7,24.6,30.26,SSE,157,0.0,0.0,88,0.00,,,0.00,WUHU21623XXSP,2013-01-12 16:58:00,
2013-01-12 09:04:00,28.2,25.1,30.25,SSE,157,0.0,0.0,88,0.00,,,0.00,WUHU21623XXSP,2013-01-12 17:04:00,
2013-01-12 09:09:00,28.2,24.8,30.25,SSE,157,0.0,0.0,87,0.00,,,0.00,WUHU21623XXSP,2013-01-12 17:09:00,
2013-01-12 09:14:00,28.6,25.2,30.25,SSE,157,0.0,0.0,87,0.00,,,0.00,WUHU21623XXSP,2013-01-12 17:14:00,
2013-01-12 09:19:00,28.6,25.2,30.25,SSE,157,0.0,0.0,87,0.00,,,0.00,WUHU21623XXSP,2013-01-12 17:19:00,
2013-01-12 09:25:00,28.9,25.6,30.26,SSE,157,0.0,0.0,87,0.00,,,0.00,WUHU21623XXSP,2013-01-12 17:25:00,
2013-01-12 09:30:00,29.3,25.9,30.25,SSE,157,0.0,0.0,87,0.00,,,0.00,WUHU21623XXSP,2013-01-12 17:30:00,
2013-01-12 09:35:00,29.8,26.5,30.26,SSE,157,0.0,0.0,87,0.00,,,0.00,WUHU21623XXSP,2013-01-12 17:35:00,
2013-01-12 09:40:00,30.0,26.6,30.26,SSE,157,0.0,0.0,87,0.00,,,0.00,WUHU21623XXSP,2013-01-12 17:40:00,
2013-01-12 09:46:00,30.4,27.0,30.25,SSE,157,0.0,0.0,87,0.00,,,0.00,WUHU21623XXSP,2013-01-12 17:46:00,
2013-01-12 09:51:00,30.7,27.4,30.25,SSE,157,0.0,0.0,87,0.00,,,0.00,WUHU21623XXSP,2013-01-12 17:51:00,
2013-01-12 09:56:00,31.3,27.6,30.26,SSE,157,0.0,0.0,86,0.00,,,0.00,WUHU21623XXSP,2013-01-12 17:56:00,
2013-01-12 10:02:00,31.6,28.0,30.26,SSE,157,0.0,0.0,86,0.00,,,0.00,WUHU21623XXSP,2013-01-12 18:02:00,
2013-01-12 10:07:00,32.0,28.0,30.26,SSE,157,0.0,0.0,85,0.00,,,0.00,WUHU21623XXSP,2013-01-12 18:07:00,
2013-01-12 10:12:00,32.2,28.2,30.27,SSE,157,0.0,0.0,85,0.00,,,0.00,WUHU21623XXSP,2013-01-12 18:12:00,
2013-01-12 10:17:00,32.7,28.7,30.26,SSE,157,0.0,0.0,85,0.00,,,0.00,WUHU21623XXSP,2013-01-12 18:17:00,
2013-01-12 10:23:00,33.1,29.0,30.27,SSE,157,0.0,0.0,85,0.00,,,0.00,WUHU21623XXSP,2013-01-12 18:23:00,
2013-01-12 10:28:00,33.6,29.5,30.26,SSE,157,0.0,0.0,85,0.00,,,0.00,WUHU21623XXSP,2013-01-12 18:28:00,
2013-01-12 10:33:00,33.8,29.7,30.26,SSE,157,0.0,0.0,85,0.00,,,0.00,WUHU21623XXSP,2013-01-12 18:33:00,
2013-01-12 10:38:00,34.2,29.7,30.26,SSE,157,0.0,0.0,84,0.00,,,0.00,WUHU21623XXSP,2013-01-12 18:38:00,
2013-01-12 10:44:00,34.3,29.9,30.26,SSE,157,0.0,0.0,84,0.00,,,0.00,WUHU21623XXSP,2013-01-12 18:44:00,
2013-01-12 10:49:00,34.3,29.6,30.26,SSE,157,0.0,0.0,83,0.00,,,0.00,WUHU21623XXSP,2013-01-12 18:49:00,
2013-01-12 10:54:00,34.7,30.0,30.26,SSE,157,0.0,0.0,83,0.00,,,0.00,WUHU21623XXSP,2013-01-12 18:54:00,
2013-01-12 10:59:00,34.9,30.2,30.26,ESE,112,0.0,0.0,83,0.00,,,0.00,WUHU21623XXSP,2013-01-12 18:59:00,
2013-01-12 11:05:00,35.2,30.2,30.26,ESE,112,0.0,0.0,82,0.00,,,0.00,WUHU21623XXSP,2013-01-12 19:05:00,
2013-01-12 11:10:00,35.4,30.4,30.26,ESE,112,0.0,0.0,82,0.00,,,0.00,WUHU21623XXSP,2013-01-12 19:10:00,
2013-01-12 11:15:00,35.8,30.5,30.26,ESE,112,0.0,0.0,81,0.00,,,0.00,WUHU21623XXSP,2013-01-12 19:15:00,
2013-01-12 11:20:00,35.8,30.5,30.26,ESE,112,0.0,0.0,81,0.00,,,0.00,WUHU21623XXSP,2013-01-12 19:20:00,
2013-01-12 11:26:00,35.8,30.5,30.26,ESE,112,0.0,0.0,81,0.00,,,0.00,WUHU21623XXSP,2013-01-12 19:26:00,
2013-01-12 11:31:00,35.8,30.5,30.26,ESE,112,0.0,0.0,81,0.00,,,0.00,WUHU21623XXSP,2013-01-12 19:31:00,
2013-01-12 11:36:00,35.8,30.5,30.25,ESE,112,0.0,0.0,81,0.00,,,0.00,WUHU21623XXSP,2013-01-12 19:36:00,
2013-01-12 11:42:00,35.8,30.5,30.25,ESE,112,0.0,0.0,81,0.00,,,0.00,WUHU21623XXSP,2013-01-12 19:42:00,
2013-01-12 11:47:00,35.8,30.5,30.26,ESE,112,0.0,0.0,81,0.00,,,0.00,WUHU21623XXSP,2013-01-12 19:47:00,
2013-01-12 11:52:00,35.4,29.8,30.26,ESE,112,0.0,0.0,80,0.00,,,0.00,WUHU21623XXSP,2013-01-12 19:52:00,
2013-01-12 11:57:00,35.4,29.8,30.25,ESE,112,0.0,0.0,80,0.00,,,0.00,WUHU21623XXSP,2013-01-12 19:57:00,
2013-01-12 12:03:00,35.4,29.8,30.25,ESE,112,0.0,0.0,80,0.00,,,0.00,WUHU21623XXSP,2013-01-12 20:03:00,
2013-01-12 12:08:00,35.4,29.8,30.25,ESE,112,0.0,0.0,80,0.00,,,0.00,WUHU21623XXSP,2013-01-12 20:08:00,
2013-01-12 12:13:00,35.4,29.8,30.25,ESE,112,0.0,0.0,80,0.00,,,0.00,WUHU21623XXSP,2013-01-12 20:13:00,
2013-01-12 12:18:00,34.9,29.3,30.25,ESE,112,0.0,0.0,80,0.00,,,0.00,WUHU21623XXSP,2013-01-12 20:18:00,
2013-01-12 12:24:00,34.5,28.9,30.24,ESE,112,0.0,0.0,80,0.00,,,0.00,WUHU21623XXSP,2013-01-12 20:24:00,
2013-01-12 12:29:00,34.5,28.9,30.24,ESE,112,0.0,0.0,80,0.00,,,0.00,WUHU21623XXSP,2013-01-12 20:29:00,
2013-01-12 12:34:00,34.5,28.9,30.24,ESE,112,0.0,0.0,80,0.00,,,0.00,WUHU21623XXSP,2013-01-12 20:34:00,
2013-01-12 12:39:00,34.3,28.4,30.24,ESE,112,0.0,0.0,79,0.00,,,0.00,WUHU21623XXSP,2013-01-12 20:39:00,
2013-01-12 12:45:00,34.3,28.4,30.24,ESE,112,0.0,0.0,79,0.00,,,0.00,WUHU21623XXSP,2013-01-12 20:45:00,
2013-01-12 12:50:00,34.3,28.1,30.24,ESE,112,0.0,0.0,78,0.00,,,0.00,WUHU21623XXSP,2013-01-12 20:50:00,
2013-01-12 12:55:00,34.2,27.9,30.24,ESE,112,0.0,0.0,78,0.00,,,0.00,WUHU21623XXSP,2013-01-12 20:55:00,
2013-01-12 13:00:00,34.0,27.4,30.24,East,90,0.0,0.0,77,0.00,,,0.00,WUHU21623XXSP,2013-01-12 21:00:00,
2013-01-12 13:06:00,34.0,27.4,30.24,East,90,0.0,0.0,77,0.00,,,0.00,WUHU21623XXSP,2013-01-12 21:06:00,
2013-01-12 13:11:00,34.2,27.9,30.24,East,90,0.0,0.0,78,0.00,,,0.00,WUHU21623XXSP,2013-01-12 21:11:00,
2013-01-12 13:16:00,34.2,28.3,30.24,East,90,0.0,0.0,79,0.00,,,0.00,WUHU21623XXSP,2013-01-12 21:16:00,
2013-01-12 13:22:00,34.2,27.9,30.25,East,90,0.0,0.0,78,0.00,,,0.00,WUHU21623XXSP,2013-01-12 21:22:00,
2013-01-12 13:27:00,34.2,27.6,30.25,East,90,0.0,0.0,77,0.00,,,0.00,WUHU21623XXSP,2013-01-12 21:27:00,
2013-01-12 13:32:00,34.2,27.6,30.25,East,90,0.0,0.0,77,0.00,,,0.00,WUHU21623XXSP,2013-01-12 21:32:00,
2013-01-12 13:37:00,34.3,27.8,30.25,East,90,0.0,0.0,77,0.00,,,0.00,WUHU21623XXSP,2013-01-12 21:37:00,
2013-01-12 13:43:00,34.3,27.8,30.25,East,90,0.0,0.0,77,0.00,,,0.00,WUHU21623XXSP,2013-01-12 21:43:00,
2013-01-12 13:48:00,34.3,27.8,30.24,East,90,0.0,0.0,77,0.00,,,0.00,WUHU21623XXSP,2013-01-12 21:48:00,
2013-01-12 13:53:00,34.3,27.8,30.26,East,90,0.0,0.0,77,0.00,,,0.00,WUHU21623XXSP,2013-01-12 21:53:00,
2013-01-12 13:58:00,34.3,27.5,30.25,East,90,0.0,0.0,76,0.00,,,0.00,WUHU21623XXSP,2013-01-12 21:58:00,
2013-01-12 14:04:00,34.3,26.8,30.25,East,90,0.0,0.0,74,0.00,,,0.00,WUHU21623XXSP,2013-01-12 22:04:00,
2013-01-12 14:09:00,34.3,27.1,30.26,East,90,0.0,0.0,75,0.00,,,0.00,WUHU21623XXSP,2013-01-12 22:09:00,
2013-01-12 14:14:00,34.3,26.8,30.25,East,90,0.0,0.0,74,0.00,,,0.00,WUHU21623XXSP,2013-01-12 22:14:00,
2013-01-12 14:20:00,34.3,26.5,30.25,East,90,0.0,0.0,73,0.00,,,0.00,WUHU21623XXSP,2013-01-12 22:20:00,
2013-01-12 14:25:00,34.3,26.5,30.25,East,90,0.0,0.0,73,0.00,,,0.00,WUHU21623XXSP,2013-01-12 22:25:00,
2013-01-12 14:30:00,34.3,26.5,30.25,East,90,0.0,0.0,73,0.00,,,0.00,WUHU21623XXSP,2013-01-12 22:30:00,
2013-01-12 14:35:00,34.3,26.8,30.25,East,90,0.0,0.0,74,0.00,,,0.00,WUHU21623XXSP,2013-01-12 22:35:00,
2013-01-12 14:41:00,34.5,27.0,30.26,East,90,0.0,0.0,74,0.00,,,0.00,WUHU21623XXSP,2013-01-12 22:41:00,
2013-01-12 14:46:00,34.3,26.5,30.26,East,90,0.0,0.0,73,0.00,,,0.00,WUHU21623XXSP,2013-01-12 22:46:00,
2013-01-12 14:51:00,34.3,26.5,30.26,East,90,0.0,0.0,73,0.00,,,0.00,WUHU21623XXSP,2013-01-12 22:51:00,
2013-01-12 14:56:00,34.3,26.5,30.26,East,90,0.0,0.0,73,0.00,,,0.00,WUHU21623XXSP,2013-01-12 22:56:00,
2013-01-12 15:02:00,34.3,26.5,30.26,East,90,0.0,0.0,73,0.00,,,0.00,WUHU21623XXSP,2013-01-12 23:02:00,
2013-01-12 15:07:00,34.3,26.5,30.26,East,90,0.0,0.0,73,0.00,,,0.00,WUHU21623XXSP,2013-01-12 23:07:00,
2013-01-12 15:12:00,34.3,26.5,30.26,East,90,0.0,0.0,73,0.00,,,0.00,WUHU21623XXSP,2013-01-12 23:12:00,
2013-01-12 15:17:00,34.3,26.2,30.26,East,90,0.0,0.0,72,0.00,,,0.00,WUHU21623XXSP,2013-01-12 23:17:00,
2013-01-12 15:23:00,34.3,26.2,30.26,East,90,0.0,0.0,72,0.00,,,0.00,WUHU21623XXSP,2013-01-12 23:23:00,
2013-01-12 15:28:00,34.2,26.0,30.26,East,90,0.0,0.0,72,0.00,,,0.00,WUHU21623XXSP,2013-01-12 23:28:00,
2013-01-12 15:33:00,34.2,26.0,30.26,East,90,0.0,0.0,72,0.00,,,0.00,WUHU21623XXSP,2013-01-12 23:33:00,
2013-01-12 15:38:00,34.2,26.3,30.26,East,90,0.0,0.0,73,0.00,,,0.00,WUHU21623XXSP,2013-01-12 23:38:00,
2013-01-12 15:44:00,34.2,26.3,30.26,East,90,0.0,0.0,73,0.00,,,0.00,WUHU21623XXSP,2013-01-12 23:44:00,
2013-01-12 15:49:00,34.0,26.1,30.26,East,90,0.0,0.0,73,0.00,,,0.00,WUHU21623XXSP,2013-01-12 23:49:00,
2013-01-12 15:54:00,34.0,26.1,30.26,East,90,0.0,0.0,73,0.00,,,0.00,WUHU21623XXSP,2013-01-12 23:54:00,
2013-01-12 16:00:00,34.0,26.1,30.26,East,90,0.0,0.0,73,0.00,,,0.00,WUHU21623XXSP,2013-01-13 00:00:00,
2013-01-12 16:05:00,33.8,26.0,30.25,East,90,0.0,0.0,73,0.00,,,0.00,WUHU21623XXSP,2013-01-13 00:05:00,
2013-01-12 16:10:00,33.6,25.8,30.26,East,90,0.0,0.0,73,0.00,,,0.00,WUHU21623XXSP,2013-01-13 00:10:00,
2013-01-12 16:15:00,33.6,25.8,30.26,East,90,0.0,0.0,73,0.00,,,0.00,WUHU21623XXSP,2013-01-13 00:15:00,
2013-01-12 16:21:00,33.6,26.1,30.26,East,90,0.0,0.0,74,0.00,,,0.00,WUHU21623XXSP,2013-01-13 00:21:00,
2013-01-12 16:26:00,33.6,26.4,30.26,East,90,0.0,0.0,75,0.00,,,0.00,WUHU21623XXSP,2013-01-13 00:26:00,
2013-01-12 16:31:00,33.4,26.3,30.25,East,90,0.0,0.0,75,0.00,,,0.00,WUHU21623XXSP,2013-01-13 00:31:00,
2013-01-12 16:36:00,33.4,26.3,30.26,East,90,0.0,0.0,75,0.00,,,0.00,WUHU21623XXSP,2013-01-13 00:36:00,
2013-01-12 16:42:00,33.3,26.4,30.26,East,90,0.0,0.0,76,0.00,,,0.00,WUHU21623XXSP,2013-01-13 00:42:00,
2013-01-12 16:47:00,33.1,26.6,30.26,East,90,0.0,0.0,77,0.00,,,0.00,WUHU21623XXSP,2013-01-13 00:47:00,
2013-01-12 16:52:00,32.9,26.8,30.26,East,90,0.0,0.0,78,0.00,,,0.00,WUHU21623XXSP,2013-01-13 00:52:00,
2013-01-12 16:57:00,32.7,26.6,30.27,East,90,0.0,0.0,78,0.00,,,0.00,WUHU21623XXSP,2013-01-13 00:57:00,
2013-01-12 17:03:00,32.7,26.6,30.27,East,90,0.0,0.0,78,0.00,,,0.00,WUHU21623XXSP,2013-01-13 01:03:00,
2013-01-12 17:08:00,32.4,26.3,30.26,East,90,0.0,0.0,78,0.00,,,0.00,WUHU21623XXSP,2013-01-13 01:08:00,
2013-01-12 17:13:00,32.2,26.4,30.27,East,90,0.0,0.0,79,0.00,,,0.00,WUHU21623XXSP,2013-01-13 01:13:00,
2013-01-12 17:18:00,32.2,26.8,30.27,East,90,0.0,0.0,80,0.00,,,0.00,WUHU21623XXSP,2013-01-13 01:18:00,
2013-01-12 17:24:00,31.8,26.4,30.27,East,90,0.0,0.0,80,0.00,,,0.00,WUHU21623XXSP,2013-01-13 01:24:00,
2013-01-12 17:29:00,31.8,26.4,30.26,East,90,0.0,0.0,80,0.00,,,0.00,WUHU21623XXSP,2013-01-13 01:29:00,
2013-01-12 17:34:00,31.8,26.7,30.26,East,90,0.0,0.0,81,0.00,,,0.00,WUHU21623XXSP,2013-01-13 01:34:00,
2013-01-12 17:40:00,31.8,26.7,30.26,East,90,0.0,0.0,81,0.00,,,0.00,WUHU21623XXSP,2013-01-13 01:40:00,
2013-01-12 17:45:00,31.6,26.5,30.26,East,90,0.0,0.0,81,0.00,,,0.00,WUHU21623XXSP,2013-01-13 01:45:00,
2013-01-12 17:50:00,31.6,26.5,30.27,East,90,0.0,0.0,81,0.00,,,0.00,WUHU21623XXSP,2013-01-13 01:50:00,
2013-01-12 17:55:00,31.6,26.8,30.27,East,90,0.0,0.0,82,0.00,,,0.00,WUHU21623XXSP,2013-01-13 01:55:00,
2013-01-12 18:01:00,31.6,26.8,30.27,East,90,0.0,0.0,82,0.00,,,0.00,WUHU21623XXSP,2013-01-13 02:01:00,
2013-01-12 18:06:00,31.6,26.8,30.27,East,90,0.0,0.0,82,0.00,,,0.00,WUHU21623XXSP,2013-01-13 02:06:00,
2013-01-12 18:11:00,31.3,26.5,30.27,East,90,0.0,0.0,82,0.00,,,0.00,WUHU21623XXSP,2013-01-13 02:11:00,
2013-01-12 18:16:00,31.3,26.5,30.27,East,90,0.0,0.0,82,0.00,,,0.00,WUHU21623XXSP,2013-01-13 02:16:00,
2013-01-12 18:22:00,31.3,26.5,30.28,East,90,0.0,0.0,82,0.00,,,0.00,WUHU21623XXSP,2013-01-13 02:22:00,
2013-01-12 18:27:00,31.3,26.7,30.27,East,90,0.0,0.0,83,0.00,,,0.00,WUHU21623XXSP,2013-01-13 02:27:00,
2013-01-12 18:32:00,31.3,26.5,30.28,East,90,0.0,0.0,82,0.00,,,0.00,WUHU21623XXSP,2013-01-13 02:32:00,
2013-01-12 18:37:00,31.3,26.5,30.28,East,90,0.0,0.0,82,0.00,,,0.00,WUHU21623XXSP,2013-01-13 02:37:00,
2013-01-12 18:43:00,31.1,26.3,30.28,East,90,0.0,0.0,82,0.00,,,0.00,WUHU21623XXSP,2013-01-13 02:43:00,
2013-01-12 18:48:00,31.1,26.3,30.28,East,90,0.0,0.0,82,0.00,,,0.00,WUHU21623XXSP,2013-01-13 02:48:00,
2013-01-12 18:53:00,30.9,26.1,30.28,East,90,0.0,0.0,82,0.00,,,0.00,WUHU21623XXSP,2013-01-13 02:53:00,
2013-01-12 18:58:00,30.9,26.1,30.28,East,90,0.0,0.0,82,0.00,,,0.00,WUHU21623XXSP,2013-01-13 02:58:00,
2013-01-12 19:04:00,30.7,26.2,30.29,East,90,0.0,0.0,83,0.00,,,0.00,WUHU21623XXSP,2013-01-13 03:04:00,
2013-01-12 19:09:00,30.7,26.2,30.28,East,90,0.0,0.0,83,0.00,,,0.00,WUHU21623XXSP,2013-01-13 03:09:00,
2013-01-12 19:14:00,30.6,26.0,30.29,East,90,0.0,0.0,83,0.00,,,0.00,WUHU21623XXSP,2013-01-13 03:14:00,
2013-01-12 19:19:00,30.4,25.8,30.28,East,90,0.0,0.0,83,0.00,,,0.00,WUHU21623XXSP,2013-01-13 03:19:00,
2013-01-12 19:25:00,30.4,25.8,30.28,East,90,0.0,0.0,83,0.00,,,0.00,WUHU21623XXSP,2013-01-13 03:25:00,
2013-01-12 19:30:00,30.2,25.7,30.28,East,90,0.0,0.0,83,0.00,,,0.00,WUHU21623XXSP,2013-01-13 03:30:00,
2013-01-12 19:35:00,30.2,25.7,30.28,East,90,0.0,0.0,83,0.00,,,0.00,WUHU21623XXSP,2013-01-13 03:35:00,
2013-01-12 19:40:00,30.0,25.5,30.29,East,90,0.0,0.0,83,0.00,,,0.00,WUHU21623XXSP,2013-01-13 03:40:00,
2013-01-12 19:46:00,30.0,25.5,30.29,East,90,0.0,0.0,83,0.00,,,0.00,WUHU21623XXSP,2013-01-13 03:46:00,
2013-01-12 19:51:00,29.5,24.9,30.29,East,90,0.0,0.0,83,0.00,,,0.00,WUHU21623XXSP,2013-01-13 03:51:00,
2013-01-12 19:56:00,29.5,25.2,30.28,East,90,0.0,0.0,84,0.00,,,0.00,WUHU21623XXSP,2013-01-13 03:56:00,
2013-01-12 20:01:00,29.5,25.2,30.28,East,90,0.0,0.0,84,0.00,,,0.00,WUHU21623XXSP,2013-01-13 04:01:00,
2013-01-12 20:07:00,29.1,24.9,30.28,East,90,0.0,0.0,84,0.00,,,0.00,WUHU21623XXSP,2013-01-13 04:07:00,
2013-01-12 20:12:00,29.1,24.9,30.27,East,90,0.0,0.0,84,0.00,,,0.00,WUHU21623XXSP,2013-01-13 04:12:00,
2013-01-12 20:17:00,29.3,25.3,30.28,East,90,0.0,0.0,85,0.00,,,0.00,WUHU21623XXSP,2013-01-13 04:17:00,
2013-01-12 20:22:00,29.3,25.3,30.27,East,90,0.0,0.0,85,0.00,,,0.00,WUHU21623XXSP,2013-01-13 04:22:00,
2013-01-12 20:28:00,29.1,24.9,30.28,East,90,0.0,0.0,84,0.00,,,0.00,WUHU21623XXSP,2013-01-13 04:28:00,
2013-01-12 20:33:00,29.1,25.2,30.28,East,90,0.0,0.0,85,0.00,,,0.00,WUHU21623XXSP,2013-01-13 04:33:00,
2013-01-12 20:38:00,29.1,25.2,30.28,East,90,0.0,0.0,85,0.00,,,0.00,WUHU21623XXSP,2013-01-13 04:38:00,
2013-01-12 20:44:00,28.9,25.0,30.29,East,90,0.0,0.0,85,0.00,,,0.00,WUHU21623XXSP,2013-01-13 04:44:00,
2013-01-12 20:49:00,28.8,24.8,30.28,East,90,0.0,0.0,85,0.00,,,0.00,WUHU21623XXSP,2013-01-13 04:49:00,
2013-01-12 20:54:00,28.8,24.8,30.28,East,90,0.0,0.0,85,0.00,,,0.00,WUHU21623XXSP,2013-01-13 04:54:00,
2013-01-12 20:59:00,28.8,24.8,30.28,East,90,0.0,0.0,85,0.00,,,0.00,WUHU21623XXSP,2013-01-13 04:59:00,
2013-01-12 21:05:00,28.8,24.8,30.28,East,90,0.0,0.0,85,0.00,,,0.00,WUHU21623XXSP,2013-01-13 05:05:00,
2013-01-12 21:10:00,28.9,25.0,30.27,East,90,0.0,0.0,85,0.00,,,0.00,WUHU21623XXSP,2013-01-13 05:10:00,
2013-01-12 21:15:00,28.9,25.0,30.28,East,90,0.0,0.0,85,0.00,,,0.00,WUHU21623XXSP,2013-01-13 05:15:00,
2013-01-12 21:20:00,28.9,25.0,30.28,East,90,0.0,0.0,85,0.00,,,0.00,WUHU21623XXSP,2013-01-13 05:20:00,
2013-01-12 21:26:00,28.8,24.8,30.28,East,90,0.0,0.0,85,0.00,,,0.00,WUHU21623XXSP,2013-01-13 05:26:00,
2013-01-12 21:31:00,28.6,24.6,30.28,East,90,0.0,0.0,85,0.00,,,0.00,WUHU21623XXSP,2013-01-13 05:31:00,
2013-01-12 21:36:00,28.6,24.6,30.28,East,90,0.0,0.0,85,0.00,,,0.00,WUHU21623XXSP,2013-01-13 05:36:00,
2013-01-12 21:41:00,28.6,24.6,30.29,East,90,0.0,0.0,85,0.00,,,0.00,WUHU21623XXSP,2013-01-13 05:41:00,
2013-01-12 21:47:00,28.2,24.3,30.28,East,90,0.0,0.0,85,0.00,,,0.00,WUHU21623XXSP,2013-01-13 05:47:00,
2013-01-12 21:52:00,28.2,24.3,30.29,East,90,0.0,0.0,85,0.00,,,0.00,WUHU21623XXSP,2013-01-13 05:52:00,
2013-01-12 21:57:00,28.2,24.3,30.29,East,90,0.0,0.0,85,0.00,,,0.00,WUHU21623XXSP,2013-01-13 05:57:00,
2013-01-12 22:02:00,28.0,24.1,30.29,East,90,0.0,0.0,85,0.00,,,0.00,WUHU21623XXSP,2013-01-13 06:02:00,
2013-01-12 22:08:00,28.0,24.1,30.30,East,90,0.0,0.0,85,0.00,,,0.00,WUHU21623XXSP,2013-01-13 06:08:00,
2013-01-12 22:13:00,28.0,24.1,30.30,East,90,0.0,0.0,85,0.00,,,0.00,WUHU21623XXSP,2013-01-13 06:13:00,
2013-01-12 22:18:00,28.0,24.4,30.30,East,90,0.0,0.0,86,0.00,,,0.00,WUHU21623XXSP,2013-01-13 06:18:00,
2013-01-12 22:24:00,28.0,24.1,30.30,East,90,0.0,0.0,85,0.00,,,0.00,WUHU21623XXSP,2013-01-13 06:24:00,
2013-01-12 22:29:00,28.0,24.1,30.30,East,90,0.0,0.0,85,0.00,,,0.00,WUHU21623XXSP,2013-01-13 06:29:00,
2013-01-12 22:35:00,28.0,24.1,30.30,East,90,0.0,0.0,85,0.00,,,0.00,WUHU21623XXSP,2013-01-13 06:35:00,
2013-01-12 22:40:00,28.0,24.1,30.30,East,90,0.0,0.0,85,0.00,,,0.00,WUHU21623XXSP,2013-01-13 06:40:00,
2013-01-12 22:45:00,28.0,24.4,30.30,East,90,0.0,0.0,86,0.00,,,0.00,WUHU21623XXSP,2013-01-13 06:45:00,
2013-01-12 22:50:00,28.0,24.1,30.30,East,90,0.0,0.0,85,0.00,,,0.00,WUHU21623XXSP,2013-01-13 06:50:00,
2013-01-12 22:56:00,27.9,23.9,30.30,East,90,0.0,0.0,85,0.00,,,0.00,WUHU21623XXSP,2013-01-13 06:56:00,
2013-01-12 23:01:00,27.7,23.7,30.31,East,90,0.0,0.0,85,0.00,,,0.00,WUHU21623XXSP,2013-01-13 07:01:00,
2013-01-12 23:06:00,27.7,24.0,30.31,East,90,0.0,0.0,86,0.00,,,0.00,WUHU21623XXSP,2013-01-13 07:06:00,
2013-01-12 23:11:00,27.5,23.8,30.32,East,90,0.0,0.0,86,0.00,,,0.00,WUHU21623XXSP,2013-01-13 07:11:00,
2013-01-12 23:17:00,27.3,23.6,30.32,East,90,0.0,0.0,86,0.00,,,0.00,WUHU21623XXSP,2013-01-13 07:17:00,
2013-01-12 23:22:00,27.3,23.6,30.32,East,90,0.0,0.0,86,0.00,,,0.00,WUHU21623XXSP,2013-01-13 07:22:00,
2013-01-12 23:27:00,27.3,23.6,30.32,East,90,0.0,0.0,86,0.00,,,0.00,WUHU21623XXSP,2013-01-13 07:27:00,
2013-01-12 23:32:00,27.5,23.8,30.32,East,90,0.0,0.0,86,0.00,,,0.00,WUHU21623XXSP,2013-01-13 07:32:00,
2013-01-12 23:38:00,27.5,23.8,30.32,East,90,0.0,0.0,86,0.00,,,0.00,WUHU21623XXSP,2013-01-13 07:38:00,
2013-01-12 23:43:00,27.1,23.5,30.32,East,90,0.0,0.0,86,0.00,,,0.00,WUHU21623XXSP,2013-01-13 07:43:00,
2013-01-12 23:48:00,27.1,23.5,30.32,East,90,0.0,0.0,86,0.00,,,0.00,WUHU21623XXSP,2013-01-13 07:48:00,
2013-01-12 23:54:00,27.1,23.5,30.32,East,90,0.0,0.0,86,0.00,,,0.00,WUHU21623XXSP,2013-01-13 07:54:00,
2013-01-12 23:59:00,27.1,23.5,30.32,East,90,0.0,0.0,86,0.00,,,0.00,WUHU21623XXSP,2013-01-13 07:59:00,